Time;durP1;ratioP1;P1;durP2;ratioP2;P2;SDS_P1;SDS_P2;PMS_P1;PMS_P2;Temp;Humidity;BMP_temperature;BMP_pressure;BME280_temperature;BME280_humidity;BME280_pressure;Samples;Min_cycle;Max_cycle;Signal;HPM_P1;HPM_P2
2022/01/04 00:01:13;;;;;;;4.60;3.65;;;12.60;77.70;;;;;;5032700;28;20038;-84
2022/01/04 00:03:40;;;;;;;4.90;3.58;;;12.60;77.70;;;;;;5030783;28;20119;-83
2022/01/04 00:06:07;;;;;;;5.25;3.80;;;12.50;77.60;;;;;;5045446;28;20030;-83
2022/01/04 00:08:33;;;;;;;5.25;4.07;;;12.60;77.70;;;;;;4997564;28;20026;-83
2022/01/04 00:11:15;;;;;;;4.85;3.70;;;12.60;77.70;;;;;;5027532;28;20029;-84
2022/01/04 00:13:41;;;;;;;5.82;4.03;;;12.50;77.60;;;;;;5021925;28;20033;-84
2022/01/04 00:16:10;;;;;;;5.15;3.88;;;12.50;78.30;;;;;;5026126;28;20781;-83
2022/01/04 00:18:36;;;;;;;5.40;3.88;;;12.50;77.70;;;;;;5025319;28;20037;-84
2022/01/04 00:21:02;;;;;;;4.88;3.85;;;12.50;77.70;;;;;;5016683;28;20036;-84
2022/01/04 00:23:28;;;;;;;4.65;3.72;;;12.50;77.70;;;;;;5028484;28;20046;-84
2022/01/04 00:25:53;;;;;;;4.65;3.60;;;12.50;77.70;;;;;;5032411;28;20040;-85
2022/01/04 00:28:20;;;;;;;4.45;3.72;;;12.50;77.70;;;;;;5042050;28;20045;-84
2022/01/04 00:30:45;;;;;;;5.07;3.80;;;12.50;77.70;;;;;;5029838;28;20030;-84
2022/01/04 00:33:13;;;;;;;4.53;3.42;;;12.50;77.70;;;;;;5024041;28;20021;-84
2022/01/04 00:35:40;;;;;;;4.57;3.65;;;12.50;77.70;;;;;;5034777;28;20025;-85
2022/01/04 00:38:06;;;;;;;5.45;3.78;;;12.50;77.70;;;;;;5056701;28;20033;-84
2022/01/04 00:40:32;;;;;;;4.53;3.70;;;12.50;77.70;;;;;;5031731;28;20033;-84
2022/01/04 00:42:58;;;;;;;5.35;3.83;;;12.50;77.70;;;;;;5025517;28;20445;-85
2022/01/04 00:45:26;;;;;;;6.07;4.25;;;12.50;77.70;;;;;;5031691;28;20104;-84
2022/01/04 00:50:25;;;;;;;5.18;3.95;;;12.50;77.70;;;;;;5031518;28;20025;-84
2022/01/04 00:52:51;;;;;;;5.75;3.90;;;12.50;77.80;;;;;;5032026;28;20033;-84
2022/01/04 00:55:19;;;;;;;4.70;3.50;;;12.50;77.70;;;;;;5031557;28;20045;-86
2022/01/04 00:57:45;;;;;;;4.93;3.70;;;12.50;77.80;;;;;;5048719;28;20037;-84
2022/01/04 01:00:13;;;;;;;5.90;3.85;;;12.40;77.70;;;;;;5015993;28;20037;-85
2022/01/04 01:02:39;;;;;;;4.65;3.50;;;12.50;77.80;;;;;;5031844;28;20038;-84
2022/01/04 01:05:06;;;;;;;5.28;3.80;;;12.50;77.80;;;;;;5020557;28;20091;-85
2022/01/04 01:07:33;;;;;;;5.63;3.75;;;12.50;77.80;;;;;;5034454;28;20033;-81
2022/01/04 01:12:26;;;;;;;4.95;3.70;;;12.50;77.80;;;;;;5048295;28;20033;-84
2022/01/04 01:14:51;;;;;;;5.28;3.92;;;12.50;77.80;;;;;;5020044;28;20037;-82
2022/01/04 01:17:17;;;;;;;4.35;3.47;;;12.50;77.80;;;;;;5029247;28;20108;-84
2022/01/04 01:19:43;;;;;;;4.97;3.92;;;12.40;77.70;;;;;;5042535;28;20106;-83
2022/01/04 01:22:09;;;;;;;4.57;3.67;;;12.40;77.70;;;;;;5068479;28;20033;-82
2022/01/04 01:24:34;;;;;;;4.95;3.65;;;12.40;77.70;;;;;;5034488;28;20026;-85
2022/01/04 01:27:00;;;;;;;5.68;4.00;;;12.40;77.80;;;;;;5033445;28;20033;-83
2022/01/04 01:29:28;;;;;;;5.15;3.63;;;12.40;77.80;;;;;;5013785;28;20038;-82
2022/01/04 01:31:54;;;;;;;5.10;3.92;;;12.40;77.80;;;;;;5026203;28;20110;-82
2022/01/04 01:34:20;;;;;;;5.35;3.97;;;12.40;77.80;;;;;;5020606;28;20080;-81
2022/01/04 01:36:45;;;;;;;5.20;3.75;;;12.40;77.80;;;;;;5057354;28;20053;-83
2022/01/04 01:39:12;;;;;;;5.60;3.85;;;12.40;77.80;;;;;;5033889;28;20440;-82
2022/01/04 01:41:38;;;;;;;5.35;4.07;;;12.40;77.80;;;;;;5007201;28;20038;-83
2022/01/04 01:44:04;;;;;;;4.63;3.55;;;12.40;77.80;;;;;;5035674;28;20029;-82
2022/01/04 01:46:30;;;;;;;5.68;3.97;;;12.40;77.80;;;;;;5022967;28;20034;-83
2022/01/04 01:48:56;;;;;;;4.93;3.88;;;12.40;77.80;;;;;;5019648;28;20078;-83
2022/01/04 01:51:26;;;;;;;5.55;4.13;;;12.40;77.80;;;;;;5037603;28;20049;-86
2022/01/04 01:53:52;;;;;;;6.05;4.13;;;12.40;77.80;;;;;;5042766;28;20486;-82
2022/01/04 01:56:18;;;;;;;6.00;4.07;;;12.40;77.80;;;;;;5023112;28;20022;-83
2022/01/04 01:58:44;;;;;;;4.95;4.03;;;12.40;77.80;;;;;;5035867;28;20123;-82
2022/01/04 02:01:11;;;;;;;5.18;4.20;;;12.40;77.80;;;;;;5030960;28;20057;-85
2022/01/04 02:03:38;;;;;;;5.03;4.10;;;12.40;77.80;;;;;;5043346;28;20021;-88
2022/01/04 02:06:04;;;;;;;6.50;4.53;;;12.40;77.80;;;;;;5048216;28;20017;-82
2022/01/04 02:08:30;;;;;;;5.45;4.25;;;12.40;77.80;;;;;;5035857;28;20120;-83
2022/01/04 02:10:57;;;;;;;5.43;4.10;;;12.40;77.80;;;;;;5033034;28;20544;-85
2022/01/04 02:13:24;;;;;;;5.93;4.38;;;12.40;77.90;;;;;;5028443;28;20136;-82
2022/01/04 02:15:51;;;;;;;6.65;4.63;;;12.40;77.80;;;;;;5041547;28;20032;-82
2022/01/04 02:18:17;;;;;;;5.10;4.40;;;12.40;77.90;;;;;;5050878;28;20462;-82
2022/01/04 02:20:43;;;;;;;6.68;4.90;;;12.40;77.80;;;;;;4997242;28;20079;-82
2022/01/04 02:23:09;;;;;;;5.47;4.55;;;12.40;77.80;;;;;;5050967;28;20034;-83
2022/01/04 02:25:36;;;;;;;6.07;4.25;;;12.40;77.90;;;;;;5014097;28;20037;-84
2022/01/04 02:28:02;;;;;;;5.68;4.32;;;12.40;77.90;;;;;;5025629;28;20061;-83
2022/01/04 02:30:28;;;;;;;5.72;4.47;;;12.40;77.90;;;;;;5016850;28;20044;-85
2022/01/04 02:32:54;;;;;;;6.68;4.63;;;12.40;77.90;;;;;;5033553;28;20401;-84
2022/01/04 02:35:23;;;;;;;5.55;4.47;;;12.40;77.90;;;;;;5033948;28;20517;-83
2022/01/04 02:37:49;;;;;;;5.07;4.40;;;12.40;77.90;;;;;;5058904;28;20508;-83
2022/01/04 02:40:16;;;;;;;5.22;4.32;;;12.40;77.90;;;;;;5033536;28;20033;-83
2022/01/04 02:42:42;;;;;;;5.75;4.63;;;12.40;77.90;;;;;;5027678;28;20038;-82
2022/01/04 02:45:08;;;;;;;5.90;4.40;;;12.40;77.90;;;;;;5048417;28;20450;-86
2022/01/04 02:47:34;;;;;;;6.50;4.82;;;12.40;77.90;;;;;;5042269;28;20108;-83
2022/01/04 02:50:00;;;;;;;6.13;4.70;;;12.40;77.90;;;;;;5019831;28;20112;-83
2022/01/04 02:52:27;;;;;;;6.30;4.55;;;12.40;77.90;;;;;;5049167;28;20025;-84
2022/01/04 02:54:53;;;;;;;6.05;4.95;;;12.40;77.90;;;;;;5049762;28;20029;-84
2022/01/04 02:57:19;;;;;;;5.65;4.47;;;12.40;77.90;;;;;;5035120;28;20036;-83
2022/01/04 02:59:45;;;;;;;6.30;4.75;;;12.40;77.90;;;;;;5008613;28;20022;-82
2022/01/04 03:02:11;;;;;;;5.70;5.10;;;12.40;77.90;;;;;;5030801;28;20061;-87
2022/01/04 03:04:37;;;;;;;6.07;4.72;;;12.40;77.90;;;;;;5036661;28;20060;-83
2022/01/04 03:07:03;;;;;;;5.40;4.35;;;12.40;77.90;;;;;;5017300;28;20037;-83
2022/01/04 03:09:29;;;;;;;5.53;4.53;;;12.40;77.90;;;;;;5050540;28;20526;-91
2022/01/04 03:11:56;;;;;;;5.40;4.55;;;12.40;77.90;;;;;;5021859;28;20164;-83
2022/01/04 03:14:22;;;;;;;6.05;4.57;;;12.40;77.90;;;;;;5045607;28;20024;-86
2022/01/04 03:16:48;;;;;;;5.88;4.95;;;12.40;77.90;;;;;;5024449;28;20037;-86
2022/01/04 03:19:14;;;;;;;5.70;4.40;;;12.30;77.80;;;;;;5036019;28;20032;-84
2022/01/04 03:21:42;;;;;;;5.85;4.63;;;12.40;77.90;;;;;;5031745;28;20037;-83
2022/01/04 03:24:10;;;;;;;5.80;4.65;;;12.40;77.90;;;;;;5044114;28;20045;-84
2022/01/04 03:26:36;;;;;;;6.15;4.97;;;12.40;77.90;;;;;;5039839;28;20033;-85
2022/01/04 03:29:04;;;;;;;5.30;3.97;;;12.30;77.90;;;;;;5027251;28;20052;-83
2022/01/04 03:31:30;;;;;;;5.93;4.22;;;12.30;77.90;;;;;;5017371;28;20029;-91
2022/01/04 03:33:56;;;;;;;5.80;4.95;;;12.30;77.90;;;;;;5041606;28;20505;-84
2022/01/04 03:36:24;;;;;;;5.75;4.55;;;12.30;77.90;;;;;;5032066;28;20026;-84
2022/01/04 03:38:51;;;;;;;5.45;4.20;;;12.30;77.90;;;;;;5039592;28;20029;-83
2022/01/04 03:41:17;;;;;;;5.55;4.50;;;12.30;77.90;;;;;;5023912;28;20034;-84
2022/01/04 03:43:43;;;;;;;6.00;4.72;;;12.30;77.90;;;;;;5027966;28;20038;-84
2022/01/04 03:46:09;;;;;;;5.53;4.03;;;12.30;77.90;;;;;;5033032;28;20406;-83
2022/01/04 03:48:36;;;;;;;5.65;4.70;;;12.30;77.90;;;;;;5032436;28;20108;-84
2022/01/04 03:51:03;;;;;;;5.65;4.32;;;12.30;77.90;;;;;;5047950;28;20029;-84
2022/01/04 03:53:29;;;;;;;5.75;4.57;;;12.30;78.00;;;;;;5029529;28;20045;-84
2022/01/04 03:55:58;;;;;;;5.20;4.13;;;12.30;77.90;;;;;;5026992;28;20061;-83
2022/01/04 03:58:24;;;;;;;6.05;4.60;;;12.30;77.90;;;;;;5024544;28;20021;-83
2022/01/04 04:00:50;;;;;;;7.35;4.50;;;12.30;77.90;;;;;;5033171;28;20339;-83
2022/01/04 04:03:17;;;;;;;6.07;4.38;;;12.30;78.00;;;;;;5029544;28;20021;-84
2022/01/04 04:05:43;;;;;;;6.53;4.88;;;12.30;78.00;;;;;;5022477;28;20033;-83
2022/01/04 04:08:09;;;;;;;6.32;4.90;;;12.30;78.00;;;;;;5027844;28;20109;-83
2022/01/04 04:10:35;;;;;;;5.75;4.93;;;12.30;78.00;;;;;;5031647;28;20116;-84
2022/01/04 04:13:02;;;;;;;5.25;4.22;;;12.30;78.00;;;;;;5048647;28;20030;-83
2022/01/04 04:15:31;;;;;;;5.25;4.22;;;12.30;78.00;;;;;;5040542;28;20052;-84
2022/01/04 04:17:57;;;;;;;5.38;4.40;;;12.30;78.00;;;;;;5033428;28;20025;-84
2022/01/04 04:20:22;;;;;;;6.05;4.85;;;12.30;78.60;;;;;;5029651;28;20117;-84
2022/01/04 04:22:48;;;;;;;5.05;4.10;;;12.30;78.00;;;;;;5037744;28;20473;-86
2022/01/04 04:25:14;;;;;;;5.30;4.40;;;12.30;78.00;;;;;;5044192;28;20104;-84
2022/01/04 04:27:40;;;;;;;5.88;4.80;;;12.30;78.00;;;;;;5016985;28;20525;-84
2022/01/04 04:30:07;;;;;;;5.68;4.63;;;12.30;78.00;;;;;;5024079;28;20025;-84
2022/01/04 04:32:33;;;;;;;5.47;4.70;;;12.30;78.00;;;;;;5017045;28;20029;-84
2022/01/04 04:34:59;;;;;;;5.50;4.45;;;12.30;78.00;;;;;;5032165;28;20408;-84
2022/01/04 04:37:25;;;;;;;5.50;4.45;;;12.30;78.00;;;;;;5032206;28;20021;-87
2022/01/04 04:39:51;;;;;;;5.85;4.45;;;12.20;78.00;;;;;;5024848;28;20498;-84
2022/01/04 04:42:17;;;;;;;5.03;4.15;;;12.20;78.00;;;;;;5037904;28;20034;-83
2022/01/04 04:44:45;;;;;;;6.60;4.65;;;12.30;78.00;;;;;;5028653;28;20144;-84
2022/01/04 04:47:11;;;;;;;5.82;4.45;;;12.20;78.00;;;;;;5012874;28;20029;-84
2022/01/04 04:49:37;;;;;;;5.82;4.88;;;12.30;78.00;;;;;;5032249;28;20029;-83
2022/01/04 04:52:03;;;;;;;8.57;4.88;;;12.20;78.00;;;;;;5032706;28;20083;-83
2022/01/04 04:54:29;;;;;;;7.10;4.80;;;12.30;78.00;;;;;;5035561;28;20037;-85
2022/01/04 04:56:55;;;;;;;5.88;4.55;;;12.20;78.00;;;;;;5033357;28;20025;-83
2022/01/04 04:59:20;;;;;;;5.88;4.68;;;12.20;78.00;;;;;;5025300;28;20033;-85
2022/01/04 05:01:46;;;;;;;5.75;4.40;;;12.20;78.00;;;;;;5048175;28;20084;-81
2022/01/04 05:04:12;;;;;;;6.00;4.50;;;12.20;78.00;;;;;;5039364;28;20086;-83
2022/01/04 05:06:38;;;;;;;6.30;4.50;;;12.20;78.00;;;;;;5010914;28;20050;-81
2022/01/04 05:09:03;;;;;;;5.88;4.75;;;12.20;78.00;;;;;;5029121;28;20069;-79
2022/01/04 05:11:29;;;;;;;7.20;5.40;;;12.20;78.00;;;;;;5038248;28;20035;-80
2022/01/04 05:13:56;;;;;;;6.22;5.00;;;12.20;78.10;;;;;;5031221;28;20106;-82
2022/01/04 05:16:22;;;;;;;5.70;4.47;;;12.20;78.00;;;;;;5034419;28;20475;-82
2022/01/04 05:18:47;;;;;;;5.93;4.93;;;12.20;78.00;;;;;;5042321;28;20017;-81
2022/01/04 05:21:13;;;;;;;5.60;4.63;;;12.10;78.00;;;;;;5011722;28;20112;-81
2022/01/04 05:23:39;;;;;;;5.80;4.68;;;12.20;78.10;;;;;;5038259;28;20084;-86
2022/01/04 05:26:04;;;;;;;6.30;4.93;;;12.20;78.10;;;;;;5045710;28;20037;-83
2022/01/04 05:28:30;;;;;;;5.95;4.72;;;12.20;78.10;;;;;;5030499;28;20084;-81
2022/01/04 05:30:56;;;;;;;6.63;5.03;;;12.20;78.10;;;;;;5046698;28;20037;-83
2022/01/04 05:33:22;;;;;;;6.35;5.10;;;12.20;78.10;;;;;;5026192;28;20458;-82
2022/01/04 05:35:48;;;;;;;6.75;4.70;;;12.20;78.10;;;;;;5029984;28;20034;-82
2022/01/04 05:38:15;;;;;;;6.43;4.90;;;12.10;78.00;;;;;;5038098;28;20067;-80
2022/01/04 05:40:42;;;;;;;6.15;4.53;;;12.10;78.00;;;;;;5033269;28;20033;-79
2022/01/04 05:43:08;;;;;;;5.80;4.80;;;12.10;78.00;;;;;;5058074;28;20036;-83
2022/01/04 05:45:34;;;;;;;6.18;4.78;;;12.10;78.00;;;;;;5034146;28;20108;-79
2022/01/04 05:48:00;;;;;;;6.40;5.10;;;12.10;78.10;;;;;;5017558;28;20056;-82
2022/01/04 05:50:26;;;;;;;6.20;4.80;;;12.10;78.00;;;;;;5034160;28;20038;-79
2022/01/04 05:52:52;;;;;;;6.10;4.68;;;12.10;78.00;;;;;;5012620;28;20488;-76
2022/01/04 05:55:18;;;;;;;5.82;4.70;;;12.10;78.10;;;;;;5024907;28;20025;-81
2022/01/04 05:57:43;;;;;;;6.43;4.75;;;12.10;78.10;;;;;;5017659;28;20048;-81
2022/01/04 06:00:10;;;;;;;6.30;4.72;;;12.10;78.10;;;;;;5012747;28;20038;-84
2022/01/04 06:02:37;;;;;;;6.50;4.97;;;12.10;78.10;;;;;;5008735;28;20116;-82
2022/01/04 06:05:04;;;;;;;6.40;5.05;;;12.10;78.10;;;;;;5023848;28;20617;-81
2022/01/04 06:07:30;;;;;;;6.10;4.97;;;12.10;78.10;;;;;;5026411;28;20068;-80
2022/01/04 06:09:56;;;;;;;6.70;4.82;;;12.10;78.10;;;;;;5028973;28;20064;-80
2022/01/04 06:14:52;;;;;;;5.95;4.50;;;12.10;78.70;;;;;;5058201;28;20060;-84
2022/01/04 06:17:19;;;;;;;6.40;5.35;;;12.10;78.10;;;;;;5049741;28;20023;-80
2022/01/04 06:19:45;;;;;;;6.78;5.05;;;12.10;78.10;;;;;;5044397;28;20025;-82
2022/01/04 06:22:11;;;;;;;5.50;4.40;;;12.10;78.10;;;;;;5038813;28;20021;-81
2022/01/04 06:24:37;;;;;;;5.95;4.90;;;12.10;78.10;;;;;;5018586;28;20133;-84
2022/01/04 06:27:10;;;;;;;6.10;4.85;;;12.10;78.20;;;;;;5028413;28;20029;-82
2022/01/04 06:29:38;;;;;;;6.32;4.90;;;12.10;78.20;;;;;;5035983;28;20195;-82
2022/01/04 06:32:05;;;;;;;6.38;5.35;;;12.10;78.10;;;;;;5037477;28;20035;-81
2022/01/04 06:34:31;;;;;;;6.55;5.25;;;12.10;78.10;;;;;;5021359;28;20030;-81
2022/01/04 06:36:57;;;;;;;6.13;4.90;;;12.10;78.10;;;;;;5060287;28;20478;-80
2022/01/04 06:39:22;;;;;;;6.75;5.05;;;12.00;78.10;;;;;;5044943;28;20098;-81
2022/01/04 06:41:48;;;;;;;5.97;4.70;;;12.10;78.10;;;;;;5035884;28;20497;-83
2022/01/04 06:44:14;;;;;;;6.53;5.15;;;12.00;78.10;;;;;;5061792;28;20392;-81
2022/01/04 06:46:45;;;;;;;6.43;5.10;;;12.00;78.10;;;;;;5034704;28;20080;-81
2022/01/04 06:49:15;;;;;;;7.20;5.00;;;12.00;78.10;;;;;;5042991;28;20501;-82
2022/01/04 06:51:43;;;;;;;6.32;5.13;;;12.10;78.20;;;;;;5038181;28;20126;-80
2022/01/04 06:54:10;;;;;;;6.90;5.10;;;12.00;78.10;;;;;;5040846;28;20029;-80
2022/01/04 06:56:37;;;;;;;6.28;4.82;;;12.00;78.10;;;;;;5038022;28;20037;-80
2022/01/04 06:59:04;;;;;;;7.18;5.15;;;12.00;78.10;;;;;;5016634;28;20120;-80
2022/01/04 07:01:30;;;;;;;6.20;4.93;;;12.00;78.10;;;;;;5027040;28;20063;-81
2022/01/04 07:03:55;;;;;;;6.50;5.32;;;12.00;78.10;;;;;;5032573;28;20030;-81
2022/01/04 07:06:21;;;;;;;6.38;4.90;;;12.00;78.10;;;;;;5018180;28;20064;-80
2022/01/04 07:08:47;;;;;;;6.90;4.97;;;12.00;78.10;;;;;;5043642;28;20478;-82
2022/01/04 07:11:14;;;;;;;7.30;5.18;;;12.00;78.10;;;;;;5041988;28;20083;-81
2022/01/04 07:13:40;;;;;;;6.78;5.38;;;12.00;78.10;;;;;;5024213;28;20378;-81
2022/01/04 07:16:06;;;;;;;6.50;5.47;;;12.00;78.20;;;;;;5017266;28;20093;-81
2022/01/04 07:18:33;;;;;;;7.15;5.60;;;12.00;78.10;;;;;;5033185;28;20490;-81
2022/01/04 07:20:59;;;;;;;6.90;5.45;;;12.00;78.10;;;;;;5060258;28;20037;-81
2022/01/04 07:23:24;;;;;;;7.30;5.57;;;12.00;78.10;;;;;;5043973;28;20386;-81
2022/01/04 07:25:51;;;;;;;7.05;5.80;;;12.00;78.20;;;;;;5026988;28;20036;-80
2022/01/04 07:28:17;;;;;;;6.63;5.60;;;11.90;78.10;;;;;;5043551;28;20044;-82
2022/01/04 07:30:43;;;;;;;7.50;6.00;;;12.00;78.10;;;;;;5024960;28;20478;-82
2022/01/04 07:33:09;;;;;;;7.35;5.63;;;12.00;78.10;;;;;;5034751;28;20037;-82
2022/01/04 07:35:35;;;;;;;7.40;5.85;;;12.00;78.10;;;;;;5012003;28;20034;-82
2022/01/04 07:38:01;;;;;;;6.97;5.32;;;12.00;78.20;;;;;;5040786;28;20024;-81
2022/01/04 07:40:26;;;;;;;7.20;5.55;;;12.00;78.10;;;;;;5041651;28;20482;-81
2022/01/04 07:42:54;;;;;;;6.65;5.40;;;12.00;78.20;;;;;;5023348;28;20489;-81
2022/01/04 07:45:20;;;;;;;6.93;5.43;;;11.90;78.10;;;;;;5035924;28;20584;-82
2022/01/04 07:47:46;;;;;;;7.35;5.95;;;11.90;78.10;;;;;;5028167;28;20030;-80
2022/01/04 07:50:12;;;;;;;8.05;5.80;;;12.00;78.10;;;;;;5006338;28;20033;-81
2022/01/04 07:52:38;;;;;;;7.13;5.78;;;11.90;78.10;;;;;;5039955;28;20030;-80
2022/01/04 07:55:05;;;;;;;7.68;5.88;;;11.90;78.10;;;;;;5040161;28;20398;-83
2022/01/04 07:57:31;;;;;;;7.78;5.97;;;11.90;78.10;;;;;;5023648;28;20558;-81
2022/01/04 07:59:56;;;;;;;8.50;6.25;;;11.90;78.10;;;;;;5024644;28;20065;-81
2022/01/04 08:02:22;;;;;;;7.85;6.07;;;11.90;78.10;;;;;;5048602;28;20072;-81
2022/01/04 08:04:48;;;;;;;7.50;6.22;;;11.90;78.10;;;;;;5016702;28;20041;-85
2022/01/04 08:07:14;;;;;;;6.97;5.65;;;11.90;78.10;;;;;;5031943;28;20037;-81
2022/01/04 08:09:41;;;;;;;8.20;6.32;;;11.90;78.10;;;;;;5043220;28;20032;-81
2022/01/04 08:12:07;;;;;;;7.45;5.88;;;11.90;78.10;;;;;;5043139;28;20028;-81
2022/01/04 08:14:33;;;;;;;8.00;6.55;;;11.90;78.10;;;;;;5016500;28;20040;-82
2022/01/04 08:16:59;;;;;;;7.10;5.60;;;11.90;78.10;;;;;;5036228;28;20029;-81
2022/01/04 08:19:25;;;;;;;7.45;5.97;;;11.90;78.10;;;;;;5040334;28;20354;-82
2022/01/04 08:21:50;;;;;;;8.25;6.40;;;11.90;78.10;;;;;;5039346;28;20052;-87
2022/01/04 08:24:16;;;;;;;8.70;6.13;;;11.90;78.80;;;;;;5039908;28;20033;-82
2022/01/04 08:26:42;;;;;;;7.10;5.63;;;11.90;78.20;;;;;;5040886;28;20025;-84
2022/01/04 08:29:08;;;;;;;7.85;6.07;;;11.90;78.20;;;;;;5042199;28;20084;-82
2022/01/04 08:31:34;;;;;;;8.35;6.53;;;11.90;78.20;;;;;;5009891;28;20041;-82
2022/01/04 08:33:59;;;;;;;8.65;6.63;;;11.90;78.20;;;;;;5023098;28;20485;-83
2022/01/04 08:36:28;;;;;;;8.52;6.45;;;11.90;78.20;;;;;;5041145;28;20026;-81
2022/01/04 08:38:55;;;;;;;7.75;5.82;;;11.90;78.20;;;;;;5024046;28;20390;-84
2022/01/04 08:41:20;;;;;;;8.68;6.65;;;11.90;78.20;;;;;;5067555;28;20036;-81
2022/01/04 08:43:46;;;;;;;9.20;6.93;;;11.90;78.20;;;;;;5043456;28;20025;-81
2022/01/04 08:46:13;;;;;;;7.30;5.70;;;11.90;78.20;;;;;;5050283;28;20099;-81
2022/01/04 08:48:38;;;;;;;9.45;7.20;;;11.80;78.20;;;;;;5042301;28;20032;-86
2022/01/04 08:51:04;;;;;;;9.55;7.50;;;11.80;78.20;;;;;;5041922;28;20033;-82
2022/01/04 08:53:30;;;;;;;9.00;6.82;;;11.90;78.20;;;;;;5026480;28;20026;-82
2022/01/04 08:56:01;;;;;;;8.20;6.45;;;11.80;78.20;;;;;;5020673;28;20036;-81
2022/01/04 08:58:29;;;;;;;9.23;6.97;;;11.80;78.20;;;;;;5022677;28;20087;-82
2022/01/04 09:00:55;;;;;;;10.30;7.28;;;11.90;78.30;;;;;;5014273;28;20109;-81
2022/01/04 09:03:21;;;;;;;8.77;6.70;;;11.90;78.30;;;;;;5017133;28;20041;-81
2022/01/04 09:05:47;;;;;;;9.30;6.43;;;11.80;78.20;;;;;;5011065;28;20030;-81
2022/01/04 09:08:12;;;;;;;8.90;6.75;;;11.80;78.30;;;;;;5035297;28;20473;-82
2022/01/04 09:10:38;;;;;;;8.98;6.65;;;11.80;78.20;;;;;;5058596;28;20029;-80
2022/01/04 09:13:13;;;;;;;10.07;7.43;;;11.80;78.30;;;;;;5035636;28;20033;-84
2022/01/04 09:20:53;;;;;;;9.18;6.57;;;11.90;78.40;;;;;;5030657;28;20048;-82
2022/01/04 09:23:21;;;;;;;9.80;7.32;;;11.80;78.20;;;;;;5029331;28;20033;-81
2022/01/04 09:25:48;;;;;;;10.90;7.28;;;11.80;78.30;;;;;;5052132;28;20029;-81
2022/01/04 09:28:15;;;;;;;9.07;6.72;;;11.80;78.40;;;;;;5039164;28;20094;-81
2022/01/04 09:30:44;;;;;;;9.30;6.68;;;11.80;78.30;;;;;;5037345;28;20402;-84
2022/01/04 09:33:10;;;;;;;10.10;7.05;;;11.80;78.40;;;;;;5045407;28;20124;-82
2022/01/04 09:35:37;;;;;;;9.32;7.05;;;11.80;78.40;;;;;;5046013;28;20058;-82
2022/01/04 09:38:04;;;;;;;9.23;6.72;;;11.80;78.40;;;;;;5053930;28;20025;-83
2022/01/04 09:40:31;;;;;;;8.93;7.18;;;11.80;78.40;;;;;;5045692;28;20470;-82
2022/01/04 09:42:57;;;;;;;10.07;7.40;;;11.80;78.40;;;;;;5027969;28;20035;-83
2022/01/04 09:45:23;;;;;;;9.43;7.15;;;11.80;78.40;;;;;;5053423;28;20094;-82
2022/01/04 09:47:49;;;;;;;9.77;7.20;;;11.80;78.30;;;;;;5034468;28;20050;-82
2022/01/04 09:50:15;;;;;;;8.82;6.65;;;11.80;78.40;;;;;;5025763;28;20394;-83
2022/01/04 09:52:47;;;;;;;10.18;7.45;;;11.80;78.30;;;;;;5040230;28;20080;-82
2022/01/04 09:55:14;;;;;;;9.55;7.03;;;11.80;78.40;;;;;;5049694;28;20112;-83
2022/01/04 09:57:41;;;;;;;9.57;7.05;;;11.80;78.30;;;;;;5039185;28;20037;-82
2022/01/04 10:00:09;;;;;;;8.98;7.15;;;11.80;78.40;;;;;;5045327;28;20029;-82
2022/01/04 10:02:35;;;;;;;9.70;6.97;;;11.80;78.40;;;;;;5035753;28;20136;-82
2022/01/04 10:05:13;;;;;;;9.05;6.90;;;11.90;78.40;;;;;;5050092;28;20075;-85
2022/01/04 10:07:39;;;;;;;8.70;6.70;;;11.80;78.40;;;;;;5042526;28;20053;-82
2022/01/04 10:10:08;;;;;;;7.95;5.90;;;11.80;78.30;;;;;;5043168;28;20049;-82
2022/01/04 10:12:55;;;;;;;8.13;5.95;;;11.80;78.40;;;;;;5039960;28;20041;-82
2022/01/04 10:15:44;;;;;;;7.18;5.68;;;11.80;78.50;;;;;;5033657;28;20029;-88
2022/01/04 10:18:13;;;;;;;8.52;5.57;;;11.80;78.50;;;;;;5038674;28;20051;-82
2022/01/04 10:20:48;;;;;;;8.32;5.85;;;11.80;78.40;;;;;;5040639;28;20061;-83
2022/01/04 10:23:19;;;;;;;7.55;5.22;;;11.80;78.40;;;;;;5041174;28;20115;-82
2022/01/04 10:25:46;;;;;;;7.72;5.40;;;11.80;78.40;;;;;;5016849;28;20036;-82
2022/01/04 10:28:26;;;;;;;6.60;4.90;;;11.80;78.40;;;;;;5057644;28;20048;-82
2022/01/04 10:30:52;;;;;;;7.72;5.25;;;11.80;78.40;;;;;;5025051;28;20029;-82
2022/01/04 10:33:21;;;;;;;6.82;4.65;;;11.80;78.40;;;;;;5033073;28;20028;-82
2022/01/04 10:35:50;;;;;;;6.07;4.13;;;11.80;78.50;;;;;;5050538;28;20033;-81
2022/01/04 10:38:21;;;;;;;8.02;4.45;;;11.80;78.40;;;;;;5061113;28;20017;-83
2022/01/04 10:40:51;;;;;;;6.70;5.00;;;11.80;78.50;;;;;;5061381;28;20060;-82
2022/01/04 10:43:19;;;;;;;5.90;4.35;;;11.80;78.40;;;;;;5046815;28;20029;-83
2022/01/04 10:45:47;;;;;;;5.45;3.78;;;11.80;78.40;;;;;;5053399;28;20021;-81
2022/01/04 10:48:17;;;;;;;5.95;3.95;;;11.80;78.40;;;;;;5020212;28;20541;-82
2022/01/04 10:50:46;;;;;;;6.35;4.68;;;11.80;78.40;;;;;;5048435;28;20061;-81
2022/01/04 10:53:30;;;;;;;6.15;4.30;;;11.80;79.10;;;;;;5041359;28;20053;-82
2022/01/04 10:56:00;;;;;;;5.53;3.70;;;11.80;78.50;;;;;;5055035;28;20087;-83
2022/01/04 10:58:33;;;;;;;6.18;4.20;;;11.80;78.40;;;;;;5041749;28;20025;-82
2022/01/04 11:01:21;;;;;;;5.88;4.10;;;11.80;78.50;;;;;;5029613;28;20474;-85
2022/01/04 11:03:53;;;;;;;7.00;4.45;;;11.70;78.60;;;;;;5052685;28;20029;-82
2022/01/04 11:06:23;;;;;;;5.25;3.92;;;11.80;78.50;;;;;;5058390;28;20036;-82
2022/01/04 11:08:48;;;;;;;6.18;4.47;;;11.80;78.50;;;;;;5040960;28;20032;-83
2022/01/04 11:11:15;;;;;;;5.82;4.10;;;11.70;78.40;;;;;;5057753;28;20108;-80
2022/01/04 11:13:41;;;;;;;6.03;4.28;;;11.70;78.50;;;;;;5027470;28;20017;-82
2022/01/04 11:16:07;;;;;;;5.88;4.35;;;11.70;78.50;;;;;;5046947;28;20386;-81
2022/01/04 11:18:34;;;;;;;6.55;4.75;;;11.80;78.50;;;;;;5034413;28;20083;-81
2022/01/04 11:21:01;;;;;;;6.72;4.72;;;11.80;78.60;;;;;;5049895;28;20037;-81
2022/01/04 11:23:29;;;;;;;5.75;4.50;;;11.80;78.60;;;;;;5016686;28;20109;-81
2022/01/04 11:25:56;;;;;;;6.30;4.40;;;11.70;78.50;;;;;;5024563;28;20052;-81
2022/01/04 11:28:23;;;;;;;6.63;4.65;;;11.80;78.60;;;;;;5057116;28;20067;-82
2022/01/04 11:30:58;;;;;;;6.15;4.55;;;11.80;78.60;;;;;;5015618;28;20455;-81
2022/01/04 11:33:57;;;;;;;6.63;4.60;;;11.80;78.70;;;;;;5062630;28;20053;-81
2022/01/04 11:36:25;;;;;;;7.03;4.97;;;11.80;78.70;;;;;;5042432;28;20775;-82
2022/01/04 11:38:51;;;;;;;6.45;4.90;;;11.80;78.50;;;;;;5057068;28;20032;-80
2022/01/04 11:41:41;;;;;;;7.65;5.18;;;11.70;78.50;;;;;;5039906;28;20037;-84
2022/01/04 11:44:19;;;;;;;6.82;5.05;;;11.80;78.70;;;;;;5049957;28;20120;-81
2022/01/04 11:47:04;;;;;;;6.30;4.65;;;11.80;78.70;;;;;;5039949;28;20037;-81
2022/01/04 11:49:31;;;;;;;6.95;4.70;;;11.80;78.80;;;;;;5025540;28;20072;-82
2022/01/04 11:51:57;;;;;;;6.25;4.60;;;11.80;78.60;;;;;;5023460;28;20037;-80
2022/01/04 11:54:28;;;;;;;7.32;5.22;;;11.80;78.60;;;;;;5042733;28;20424;-81
2022/01/04 11:57:26;;;;;;;7.32;4.80;;;11.80;78.70;;;;;;5031127;28;20095;-80
2022/01/04 12:00:01;;;;;;;6.35;4.93;;;11.80;78.70;;;;;;5018328;28;20124;-81
2022/01/04 12:02:35;;;;;;;8.38;5.47;;;11.80;78.70;;;;;;5032517;28;20029;-80
2022/01/04 12:05:23;;;;;;;6.85;5.20;;;11.80;78.70;;;;;;5052007;28;20033;-81
2022/01/04 12:07:51;;;;;;;7.25;5.35;;;11.80;78.70;;;;;;5025087;28;20104;-83
2022/01/04 12:10:20;;;;;;;8.13;5.43;;;11.80;78.70;;;;;;5048302;28;20024;-84
2022/01/04 12:13:06;;;;;;;6.70;4.85;;;11.80;78.70;;;;;;5040219;28;20041;-82
2022/01/04 12:15:57;;;;;;;6.50;4.65;;;11.80;78.80;;;;;;5031450;28;20194;-81
2022/01/04 12:18:33;;;;;;;6.72;4.85;;;11.80;78.80;;;;;;5037945;28;20029;-81
2022/01/04 12:21:15;;;;;;;6.45;4.80;;;11.80;78.70;;;;;;5016293;28;20060;-82
2022/01/04 12:23:44;;;;;;;6.88;4.78;;;11.80;78.70;;;;;;5052399;28;20510;-85
2022/01/04 12:26:13;;;;;;;6.60;4.82;;;11.80;78.70;;;;;;5048522;28;20040;-81
2022/01/04 12:28:43;;;;;;;6.15;4.65;;;11.80;78.70;;;;;;5033427;28;20107;-81
2022/01/04 12:31:34;;;;;;;6.25;4.65;;;11.80;78.70;;;;;;5031365;28;20469;-82
2022/01/04 12:34:07;;;;;;;6.25;4.30;;;11.80;78.80;;;;;;5026428;28;20469;-81
2022/01/04 12:36:38;;;;;;;6.18;4.38;;;11.80;78.70;;;;;;5038445;28;20040;-82
2022/01/04 12:39:08;;;;;;;5.75;4.05;;;11.80;78.70;;;;;;5033178;28;20060;-82
2022/01/04 12:41:38;;;;;;;5.80;4.15;;;11.80;78.70;;;;;;5047757;28;20037;-82
2022/01/04 12:44:07;;;;;;;6.35;4.45;;;11.80;78.70;;;;;;5041786;28;20095;-81
2022/01/04 12:46:41;;;;;;;6.18;4.30;;;11.80;78.70;;;;;;5042580;28;20031;-83
2022/01/04 12:49:09;;;;;;;5.57;4.05;;;11.90;78.80;;;;;;5045160;28;20052;-80
2022/01/04 12:51:44;;;;;;;5.00;3.50;;;11.80;78.70;;;;;;5043967;28;20052;-82
2022/01/04 12:54:11;;;;;;;;;;;11.80;78.70;;;;;;5042573;28;20026;-80
2022/01/04 12:56:43;;;;;;;4.85;3.17;;;11.80;78.50;;;;;;5020997;28;20262;-81
2022/01/04 12:59:10;;;;;;;5.53;3.60;;;11.80;78.50;;;;;;5063854;28;20470;-81
2022/01/04 13:01:36;;;;;;;4.90;3.55;;;11.80;78.60;;;;;;5036224;28;20033;-80
2022/01/04 13:04:19;;;;;;;4.90;3.10;;;11.80;78.60;;;;;;5047406;28;20033;-81